^^
Saratoga-Weather Station Historical Data
Daily Summary for February 1, 2021 Units:  Metric    English   Both
Daily Weekly Monthly Yearly Custom
  High: Low: Average:
Temperature: 11.7 °C 2.3 °C 5.7 °C
Dew Point: 4.7 °C 0.6 °C 2.2 °C
Humidity: 89% 54% 79%
Wind Speed: 7.9km/h 0km/h 0.9km/h
Wind Gust: 14.5km/h - -
Wind- - ESE
Pressure: 1013.2 hPa 1011.9 hPa -
Precipitation: 0.0 mm    
Historical Graphs
 
 
Tabular Data for February 1, 2021
Time Temperature Dew Point Pressure Wind Wind Speed Wind Gust Humidity Rainfall Rate (Hourly) solar
00:02 6.7 °C 2 °C 1013.2 hPa Calm     72% 0.0 mm 0 W/m2
00:07 6.4 °C 1.7 °C 1013.2 hPa Calm     72% 0.0 mm 0 W/m2
00:12 6.3 °C 1.6 °C 1013.2 hPa Calm     72% 0.0 mm 0 W/m2
00:17 6.2 °C 1.5 °C 1013.2 hPa Calm     72% 0.0 mm 0 W/m2
00:22 6 °C 1.5 °C 1013.2 hPa Calm     73% 0.0 mm 0 W/m2
00:27 5.8 °C 1.3 °C 1013.2 hPa Calm     73% 0.0 mm 0 W/m2
00:32 5.7 °C 1.2 °C 1013.2 hPa Calm     73% 0.0 mm 0 W/m2
00:37 5.4 °C 1.1 °C 1013.2 hPa Calm     74% 0.0 mm 0 W/m2
00:42 5.3 °C 1 °C 1013.2 hPa Calm     74% 0.0 mm 0 W/m2
00:47 5.2 °C 1.1 °C 1013.2 hPa Calm     75% 0.0 mm 0 W/m2
00:52 5 °C 0.9 °C 1013.2 hPa Calm     75% 0.0 mm 0 W/m2
00:57 4.8 °C 0.9 °C 1013.2 hPa Calm     76% 0.0 mm 0 W/m2
01:02 4.7 °C 1 °C 1013.2 hPa Calm     77% 0.0 mm 0 W/m2
01:07 4.6 °C 0.9 °C 1013.2 hPa Calm     77% 0.0 mm 0 W/m2
01:12 4.5 °C 0.8 °C 1013.2 hPa Calm     77% 0.0 mm 0 W/m2
01:17 4.4 °C 0.9 °C 1013.2 hPa Calm     78% 0.0 mm 0 W/m2
01:22 4.3 °C 0.8 °C 1013.2 hPa Calm     78% 0.0 mm 0 W/m2
01:27 4.3 °C 0.8 °C 1013.2 hPa Calm     78% 0.0 mm 0 W/m2
01:32 4.2 °C 0.9 °C 1013.2 hPa Calm     79% 0.0 mm 0 W/m2
01:37 4.2 °C 0.9 °C 1013.2 hPa Calm     79% 0.0 mm 0 W/m2
01:42 4.2 °C 1.1 °C 1013.2 hPa Calm     80% 0.0 mm 0 W/m2
01:47 4.1 °C 1 °C 1013.2 hPa Calm     80% 0.0 mm 0 W/m2
01:52 4.1 °C 1 °C 1013.2 hPa Calm     80% 0.0 mm 0 W/m2
01:57 4 °C 1 °C 1013.2 hPa Calm     81% 0.0 mm 0 W/m2
02:02 4 °C 1 °C 1012.9 hPa Calm     81% 0.0 mm 0 W/m2
02:07 3.9 °C 0.9 °C 1012.9 hPa Calm     81% 0.0 mm 0 W/m2
02:12 3.9 °C 1.1 °C 1012.9 hPa Calm     82% 0.0 mm 0 W/m2
02:17 3.8 °C 1 °C 1012.9 hPa Calm     82% 0.0 mm 0 W/m2
02:22 3.7 °C 0.9 °C 1012.9 hPa Calm     82% 0.0 mm 0 W/m2
02:27 3.7 °C 1.1 °C 1012.9 hPa Calm     83% 0.0 mm 0 W/m2
02:32 3.6 °C 1 °C 1012.9 hPa Calm     83% 0.0 mm 0 W/m2
02:37 3.6 °C 1 °C 1012.9 hPa Calm     83% 0.0 mm 0 W/m2
02:42 3.5 °C 0.9 °C 1012.9 hPa Calm     83% 0.0 mm 0 W/m2
02:47 3.5 °C 1.1 °C 1012.9 hPa West 1.4 km/h 4.8 km/h 84% 0.0 mm 0 W/m2
02:52 3.5 °C 1.1 °C 1012.9 hPa Calm   1.6 km/h 84% 0.0 mm 0 W/m2
02:57 3.5 °C 1.1 °C 1012.5 hPa Calm     84% 0.0 mm 0 W/m2
03:02 3.5 °C 1.1 °C 1012.9 hPa Calm     84% 0.0 mm 0 W/m2
03:07 3.4 °C 1 °C 1012.9 hPa Calm     84% 0.0 mm 0 W/m2
03:12 3.4 °C 1.1 °C 1012.5 hPa Calm     85% 0.0 mm 0 W/m2
03:17 3.3 °C 1 °C 1012.5 hPa Calm     85% 0.0 mm 0 W/m2
03:22 3.3 °C 1 °C 1012.5 hPa Calm     85% 0.0 mm 0 W/m2
03:27 3.2 °C 0.9 °C 1012.5 hPa Calm     85% 0.0 mm 0 W/m2
03:32 3.1 °C 1 °C 1012.9 hPa West 1.4 km/h 1.6 km/h 86% 0.0 mm 0 W/m2
03:37 3.1 °C 1 °C 1012.9 hPa Calm   1.6 km/h 86% 0.0 mm 0 W/m2
03:42 3.1 °C 1.1 °C 1012.9 hPa Calm     87% 0.0 mm 0 W/m2
03:47 3.1 °C 1.1 °C 1012.9 hPa Calm     87% 0.0 mm 0 W/m2
03:52 3 °C 1 °C 1012.9 hPa Calm     87% 0.0 mm 0 W/m2
03:57 2.9 °C 1 °C 1012.9 hPa Calm     87% 0.0 mm 0 W/m2
04:02 2.8 °C 0.9 °C 1012.9 hPa Calm     87% 0.0 mm 0 W/m2
04:07 2.8 °C 0.9 °C 1012.9 hPa Calm     87% 0.0 mm 0 W/m2
04:12 2.7 °C 0.9 °C 1012.9 hPa Calm     88% 0.0 mm 0 W/m2
04:17 2.7 °C 0.9 °C 1012.9 hPa Calm     88% 0.0 mm 0 W/m2
04:22 2.7 °C 0.9 °C 1012.9 hPa Calm     88% 0.0 mm 0 W/m2
04:27 2.6 °C 0.8 °C 1012.9 hPa Calm     88% 0.0 mm 0 W/m2
04:32 2.5 °C 0.7 °C 1012.9 hPa Calm     88% 0.0 mm 0 W/m2
04:37 2.4 °C 0.6 °C 1012.9 hPa Calm   1.6 km/h 88% 0.0 mm 0 W/m2
04:43 2.4 °C 0.8 °C 1012.9 hPa Calm   1.6 km/h 89% 0.0 mm 0 W/m2
04:48 2.4 °C 0.8 °C 1012.9 hPa Calm     89% 0.0 mm 0 W/m2
04:53 2.3 °C 0.7 °C 1012.9 hPa Calm     89% 0.0 mm 0 W/m2
04:58 2.3 °C 0.7 °C 1012.9 hPa Calm     89% 0.0 mm 0 W/m2
05:03 2.4 °C 0.8 °C 1012.5 hPa Calm   1.6 km/h 89% 0.0 mm 0 W/m2
05:08 2.4 °C 0.8 °C 1012.5 hPa West 1.4 km/h 3.2 km/h 89% 0.0 mm 0 W/m2
05:13 2.6 °C 1 °C 1012.5 hPa West 1.4 km/h 3.2 km/h 89% 0.0 mm 0 W/m2
05:18 2.7 °C 1.1 °C 1012.5 hPa WSW 1.4 km/h 1.6 km/h 89% 0.0 mm 0 W/m2
05:23 2.9 °C 1.3 °C 1012.5 hPa Calm     89% 0.0 mm 0 W/m2
05:28 3.1 °C 1.3 °C 1012.5 hPa WSW 1.4 km/h 1.6 km/h 88% 0.0 mm 0 W/m2
05:33 3.3 °C 1.5 °C 1012.5 hPa Calm   3.2 km/h 88% 0.0 mm 0 W/m2
05:38 3.4 °C 1.4 °C 1012.2 hPa Calm   1.6 km/h 87% 0.0 mm 0 W/m2
05:43 3.5 °C 1.5 °C 1012.2 hPa Calm   1.6 km/h 87% 0.0 mm 0 W/m2
05:48 3.7 °C 1.7 °C 1012.2 hPa Calm     87% 0.0 mm 0 W/m2
05:53 3.7 °C 1.7 °C 1012.2 hPa Calm     87% 0.0 mm 0 W/m2
05:58 3.8 °C 1.7 °C 1011.9 hPa Calm     86% 0.0 mm 0 W/m2
06:03 3.9 °C 1.8 °C 1011.9 hPa Calm     86% 0.0 mm 0 W/m2
06:08 3.9 °C 1.8 °C 1011.9 hPa Calm     86% 0.0 mm 0 W/m2
06:13 4 °C 1.9 °C 1011.9 hPa Calm     86% 0.0 mm 0 W/m2
06:18 4.1 °C 2 °C 1011.9 hPa Calm     86% 0.0 mm 0 W/m2
06:23 4.1 °C 2 °C 1012.2 hPa NNE 3.2 km/h 3.2 km/h 86% 0.0 mm 0 W/m2
06:28 4.2 °C 1.7 °C 1012.2 hPa East 1.4 km/h 3.2 km/h 84% 0.0 mm 5 W/m2
06:33 4.2 °C 1.7 °C 1012.2 hPa East 1.4 km/h 3.2 km/h 84% 0.0 mm 12 W/m2
06:38 4.3 °C 1.8 °C 1012.2 hPa East 1.4 km/h 1.6 km/h 84% 0.0 mm 19 W/m2
06:43 4.3 °C 1.7 °C 1012.2 hPa East 1.4 km/h 3.2 km/h 83% 0.0 mm 25 W/m2
06:48 4.4 °C 1.9 °C 1012.5 hPa Calm   1.6 km/h 84% 0.0 mm 25 W/m2
06:53 4.5 °C 2 °C 1012.5 hPa Calm     84% 0.0 mm 21 W/m2
06:58 4.6 °C 2.3 °C 1012.5 hPa Calm     85% 0.0 mm 21 W/m2
07:03 4.7 °C 2.4 °C 1012.2 hPa Calm   1.6 km/h 85% 0.0 mm 35 W/m2
07:08 4.8 °C 2.3 °C 1012.2 hPa Calm     84% 0.0 mm 42 W/m2
07:13 4.8 °C 2.3 °C 1012.2 hPa East 1.4 km/h 1.6 km/h 84% 0.0 mm 49 W/m2
07:18 5 °C 2.4 °C 1012.2 hPa Calm   3.2 km/h 83% 0.0 mm 56 W/m2
07:23 5.1 °C 2.3 °C 1012.2 hPa SE 1.4 km/h 1.6 km/h 82% 0.0 mm 53 W/m2
07:28 5.2 °C 2.4 °C 1012.2 hPa SE 1.4 km/h 3.2 km/h 82% 0.0 mm 47 W/m2
07:33 5.3 °C 2.3 °C 1012.5 hPa SE 1.4 km/h 3.2 km/h 81% 0.0 mm 58 W/m2
07:38 5.3 °C 2.3 °C 1012.2 hPa ESE 1.4 km/h 3.2 km/h 81% 0.0 mm 69 W/m2
07:43 5.4 °C 2.4 °C 1012.2 hPa Calm     81% 0.0 mm 65 W/m2
07:48 5.4 °C 2.4 °C 1012.5 hPa SSE 1.4 km/h 3.2 km/h 81% 0.0 mm 51 W/m2
07:53 5.6 °C 2.6 °C 1012.5 hPa SSE 1.4 km/h 1.6 km/h 81% 0.0 mm 62 W/m2
07:58 5.6 °C 2.6 °C 1012.5 hPa Calm   1.6 km/h 81% 0.0 mm 79 W/m2
08:03 5.7 °C 2.7 °C 1012.5 hPa Calm   1.6 km/h 81% 0.0 mm 90 W/m2
08:08 5.8 °C 2.8 °C 1012.5 hPa SSW 1.4 km/h 1.6 km/h 81% 0.0 mm 90 W/m2
08:13 5.8 °C 2.6 °C 1012.5 hPa Calm   3.2 km/h 80% 0.0 mm 83 W/m2
08:18 5.9 °C 2.9 °C 1012.5 hPa Calm   3.2 km/h 81% 0.0 mm 83 W/m2
08:23 6 °C 2.8 °C 1012.5 hPa Calm   3.2 km/h 80% 0.0 mm 84 W/m2
08:28 6.1 °C 2.9 °C 1012.5 hPa Calm   6.4 km/h 80% 0.0 mm 97 W/m2
08:33 6.2 °C 3 °C 1012.5 hPa Calm   1.6 km/h 80% 0.0 mm 102 W/m2
08:38 6.2 °C 2.8 °C 1012.5 hPa ENE 1.4 km/h 3.2 km/h 79% 0.0 mm 107 W/m2
08:43 6.3 °C 2.9 °C 1012.5 hPa Calm   3.2 km/h 79% 0.0 mm 104 W/m2
08:49 6.3 °C 2.9 °C 1012.5 hPa Calm   1.6 km/h 79% 0.0 mm 100 W/m2
08:54 6.4 °C 3 °C 1012.5 hPa Calm   3.2 km/h 79% 0.0 mm 105 W/m2
08:59 6.5 °C 3.1 °C 1012.5 hPa ENE 1.4 km/h 4.8 km/h 79% 0.0 mm 109 W/m2
09:04 6.6 °C 3.2 °C 1012.5 hPa Calm     79% 0.0 mm 114 W/m2
09:09 6.7 °C 3.1 °C 1012.5 hPa Calm   1.6 km/h 78% 0.0 mm 120 W/m2
09:14 6.8 °C 3.2 °C 1012.5 hPa Calm   3.2 km/h 78% 0.0 mm 120 W/m2
09:19 6.8 °C 3.4 °C 1012.5 hPa NE 1.4 km/h 1.6 km/h 79% 0.0 mm 130 W/m2
09:24 6.9 °C 3.3 °C 1012.5 hPa North 1.4 km/h 4.8 km/h 78% 0.0 mm 151 W/m2
09:29 7 °C 3.4 °C 1012.5 hPa NE 3.2 km/h 3.2 km/h 78% 0.0 mm 179 W/m2
09:34 7.1 °C 3.5 °C 1012.5 hPa Calm   4.8 km/h 78% 0.0 mm 209 W/m2
09:39 7.2 °C 3.6 °C 1012.5 hPa North 1.4 km/h 1.6 km/h 78% 0.0 mm 218 W/m2
09:44 7.4 °C 3.8 °C 1012.5 hPa Calm   4.8 km/h 78% 0.0 mm 211 W/m2
09:49 7.6 °C 3.8 °C 1012.5 hPa ENE 3.2 km/h 6.4 km/h 77% 0.0 mm 204 W/m2
09:54 7.7 °C 3.9 °C 1012.5 hPa Calm   4.8 km/h 77% 0.0 mm 214 W/m2
09:59 7.7 °C 3.9 °C 1012.5 hPa East 1.4 km/h 3.2 km/h 77% 0.0 mm 197 W/m2
10:04 7.9 °C 4.1 °C 1012.5 hPa NW 3.2 km/h 8 km/h 77% 0.0 mm 188 W/m2
10:09 8.1 °C 4.1 °C 1012.9 hPa NNE 1.4 km/h 3.2 km/h 76% 0.0 mm 186 W/m2
10:14 8.2 °C 4.2 °C 1012.9 hPa Calm   4.8 km/h 76% 0.0 mm 186 W/m2
10:19 8.3 °C 4.1 °C 1012.9 hPa ENE 3.2 km/h 3.2 km/h 75% 0.0 mm 193 W/m2
10:24 8.4 °C 4.2 °C 1012.9 hPa ESE 3.2 km/h 6.4 km/h 75% 0.0 mm 209 W/m2
10:29 8.4 °C 4 °C 1012.9 hPa ENE 3.2 km/h 6.4 km/h 74% 0.0 mm 227 W/m2
10:34 8.6 °C 4.2 °C 1012.9 hPa East 1.4 km/h 6.4 km/h 74% 0.0 mm 227 W/m2
10:39 8.7 °C 4.3 °C 1012.9 hPa East 1.4 km/h 3.2 km/h 74% 0.0 mm 229 W/m2
10:44 8.8 °C 4.4 °C 1012.9 hPa East 4.7 km/h 4.8 km/h 74% 0.0 mm 244 W/m2
10:49 8.9 °C 4.1 °C 1012.9 hPa NE 1.4 km/h 3.2 km/h 72% 0.0 mm 258 W/m2
10:54 9.1 °C 4.3 °C 1012.9 hPa ENE 1.4 km/h 6.4 km/h 72% 0.0 mm 285 W/m2
10:59 9.2 °C 4.2 °C 1012.5 hPa NNE 1.4 km/h 4.8 km/h 71% 0.0 mm 316 W/m2
11:04 9.2 °C 4 °C 1012.9 hPa ESE 4.7 km/h 9.7 km/h 70% 0.0 mm 311 W/m2
11:09 9.3 °C 4.1 °C 1012.9 hPa NE 3.2 km/h 6.4 km/h 70% 0.0 mm 325 W/m2
11:14 9.4 °C 4 °C 1012.9 hPa ENE 3.2 km/h 9.7 km/h 69% 0.0 mm 343 W/m2
11:19 9.6 °C 4.4 °C 1012.9 hPa ENE 1.4 km/h 8 km/h 70% 0.0 mm 394 W/m2
11:24 9.7 °C 4.5 °C 1012.9 hPa ESE 1.4 km/h 9.7 km/h 70% 0.0 mm 450 W/m2
11:29 9.8 °C 4.2 °C 1012.9 hPa Calm   3.2 km/h 68% 0.0 mm 434 W/m2
11:34 10 °C 4.6 °C 1012.9 hPa North 1.4 km/h 9.7 km/h 69% 0.0 mm 452 W/m2
11:39 10.3 °C 4.4 °C 1012.9 hPa SE 3.2 km/h 4.8 km/h 67% 0.0 mm 478 W/m2
11:44 10.4 °C 4.3 °C 1012.5 hPa East 4.7 km/h 14.5 km/h 66% 0.0 mm 494 W/m2
11:49 10.6 °C 4.3 °C 1012.5 hPa NNE 4.7 km/h 4.8 km/h 65% 0.0 mm 469 W/m2
11:54 10.8 °C 4.7 °C 1012.5 hPa East 6.4 km/h 8 km/h 66% 0.0 mm 508 W/m2
11:59 10.9 °C 4.4 °C 1012.9 hPa NNE 4.7 km/h 9.7 km/h 64% 0.0 mm 538 W/m2
12:04 11 °C 4.7 °C 1012.9 hPa NE 3.2 km/h 6.4 km/h 65% 0.0 mm 482 W/m2
12:09 11.2 °C 4.4 °C 1012.9 hPa Calm   4.8 km/h 63% 0.0 mm 517 W/m2
12:14 11.2 °C 4.4 °C 1012.5 hPa WNW 4.7 km/h 9.7 km/h 63% 0.0 mm 512 W/m2
12:19 11.2 °C 4.2 °C 1012.5 hPa NE 6.4 km/h 14.5 km/h 62% 0.0 mm 489 W/m2
12:24 11.2 °C 3.2 °C 1012.9 hPa East 6.4 km/h 12.9 km/h 58% 0.0 mm 515 W/m2
12:29 11.3 °C 2.8 °C 1012.9 hPa WNW 3.2 km/h 14.5 km/h 56% 0.0 mm 501 W/m2
12:34 11.5 °C 3.3 °C 1012.9 hPa East 4.7 km/h 11.3 km/h 57% 0.0 mm 439 W/m2
12:39 11.6 °C 2.9 °C 1012.5 hPa Calm   1.6 km/h 55% 0.0 mm 457 W/m2
12:44 11.7 °C 2.7 °C 1012.5 hPa ENE 7.9 km/h 11.3 km/h 54% 0.0 mm 482 W/m2
Juneau County Weather
Compliments of Weather Underground - 2 mb